Time;durP1;ratioP1;P1;durP2;ratioP2;P2;SDS_P1;SDS_P2;PMS_P1;PMS_P2;Temp;Humidity;BMP_temperature;BMP_pressure;BME280_temperature;BME280_humidity;BME280_pressure;Samples;Min_cycle;Max_cycle;Signal;HPM_P1;HPM_P2
2024/01/06 00:00:49;;;;;;;;;;;5.30;99.90;;;;;;5022073;28;19928;-77
2024/01/06 00:03:35;;;;;;;;;;;5.30;99.90;;;;;;5021263;28;19913;-76
2024/01/06 00:06:21;;;;;;;;;;;5.30;99.90;;;;;;5008042;28;19921;-76
2024/01/06 00:09:07;;;;;;;;;;;5.30;99.90;;;;;;5024397;28;19959;-76
2024/01/06 00:11:53;;;;;;;;;;;5.30;99.90;;;;;;5023972;28;19979;-77
2024/01/06 00:14:42;;;;;;;;;;;5.30;99.90;;;;;;5023535;28;19969;-77
2024/01/06 00:17:28;;;;;;;;;;;5.30;99.90;;;;;;5009373;28;19923;-76
2024/01/06 00:20:14;;;;;;;;;;;5.30;99.90;;;;;;5016887;28;19921;-76
2024/01/06 00:22:59;;;;;;;;;;;5.30;99.90;;;;;;5014473;28;19953;-76
2024/01/06 00:25:46;;;;;;;;;;;5.30;99.90;;;;;;5015793;28;19941;-76
2024/01/06 00:28:31;;;;;;;;;;;5.30;99.90;;;;;;5033189;28;19928;-76
2024/01/06 00:31:17;;;;;;;;;;;5.30;99.90;;;;;;5030371;28;19971;-76
2024/01/06 00:34:03;;;;;;;;;;;5.30;99.90;;;;;;5023108;28;20153;-76
2024/01/06 00:36:49;;;;;;;;;;;5.30;99.90;;;;;;5009333;28;19916;-77
2024/01/06 00:39:35;;;;;;;;;;;5.20;99.90;;;;;;5006013;28;19921;-76
2024/01/06 00:42:21;;;;;;;;;;;5.20;99.90;;;;;;5022250;28;19917;-76
2024/01/06 00:45:07;;;;;;;;;;;5.20;99.90;;;;;;5010048;28;19913;-76
2024/01/06 00:47:53;;;;;;;;;;;5.20;99.90;;;;;;5023329;28;19913;-76
2024/01/06 00:50:39;;;;;;;;;;;5.20;99.90;;;;;;5021894;28;20011;-76
2024/01/06 00:53:24;;;;;;;;;;;5.20;99.90;;;;;;5019226;28;19981;-76
2024/01/06 00:56:10;;;;;;;;;;;5.20;99.90;;;;;;5032720;28;19968;-76
2024/01/06 00:58:56;;;;;;;;;;;5.20;99.90;;;;;;5008512;28;19924;-76
2024/01/06 01:01:42;;;;;;;;;;;5.20;99.90;;;;;;5024656;28;19917;-76
2024/01/06 01:04:28;;;;;;;;;;;5.10;99.90;;;;;;5016425;28;19941;-76
2024/01/06 01:07:14;;;;;;;;;;;5.10;99.90;;;;;;5008986;28;19917;-76
2024/01/06 01:10:00;;;;;;;;;;;5.10;99.90;;;;;;5023974;28;19971;-76
2024/01/06 01:12:46;;;;;;;;;;;5.10;99.90;;;;;;5024998;28;19927;-76
2024/01/06 01:15:31;;;;;;;;;;;5.10;99.90;;;;;;5012277;28;19917;-76
2024/01/06 01:18:17;;;;;;;;;;;5.10;99.90;;;;;;5022930;28;19974;-76
2024/01/06 01:21:03;;;;;;;;;;;5.10;99.90;;;;;;5003621;28;19921;-75
2024/01/06 01:23:49;;;;;;;;;;;5.10;99.90;;;;;;5010286;28;19913;-76
2024/01/06 01:26:35;;;;;;;;;;;5.10;99.90;;;;;;5017717;28;19917;-76
2024/01/06 01:29:21;;;;;;;;;;;5.10;99.90;;;;;;5009555;28;19917;-76
2024/01/06 01:32:07;;;;;;;;;;;5.00;99.90;;;;;;5016659;28;19992;-76
2024/01/06 01:34:53;;;;;;;;;;;5.10;99.90;;;;;;5035630;28;19913;-76
2024/01/06 01:37:39;;;;;;;;;;;5.10;99.90;;;;;;5011531;28;19936;-76
2024/01/06 01:40:25;;;;;;;;;;;5.00;99.90;;;;;;5022995;28;19949;-76
2024/01/06 01:43:19;;;;;;;;;;;5.00;99.90;;;;;;5024289;28;19917;-76
2024/01/06 01:46:05;;;;;;;;;;;5.00;99.90;;;;;;5005727;28;19917;-76
2024/01/06 01:48:52;;;;;;;;;;;5.00;99.90;;;;;;5002629;28;19913;-76
2024/01/06 01:51:38;;;;;;;;;;;5.00;99.90;;;;;;5027081;28;20340;-76
2024/01/06 01:54:24;;;;;;;;;;;5.00;99.90;;;;;;5010363;28;19972;-77
2024/01/06 01:57:11;;;;;;;;;;;5.00;99.90;;;;;;5029160;28;19952;-77
2024/01/06 01:59:57;;;;;;;;;;;5.00;99.90;;;;;;5025021;28;20013;-75
2024/01/06 02:02:43;;;;;;;;;;;4.90;99.90;;;;;;5002843;28;19917;-75
2024/01/06 02:05:29;;;;;;;;;;;4.90;99.90;;;;;;5025155;28;20052;-76
2024/01/06 02:08:15;;;;;;;;;;;5.00;99.90;;;;;;5006055;28;19920;-76
2024/01/06 02:11:00;;;;;;;;;;;4.90;99.90;;;;;;5014665;28;19918;-76
2024/01/06 02:13:46;;;;;;;;;;;5.00;99.90;;;;;;5022534;28;20009;-76
2024/01/06 02:16:32;;;;;;;;;;;4.90;99.90;;;;;;5025410;28;19929;-77
2024/01/06 02:19:18;;;;;;;;;;;4.90;99.90;;;;;;5018398;28;20150;-77
2024/01/06 02:22:04;;;;;;;;;;;4.90;99.90;;;;;;5039613;28;19963;-76
2024/01/06 02:24:50;;;;;;;;;;;4.90;99.90;;;;;;5004116;28;19944;-76
2024/01/06 02:27:36;;;;;;;;;;;4.90;99.90;;;;;;5036836;28;20342;-76
2024/01/06 02:30:21;;;;;;;;;;;4.90;99.90;;;;;;5015181;28;19917;-76
2024/01/06 02:33:07;;;;;;;;;;;4.90;99.90;;;;;;5040478;28;19913;-75
2024/01/06 02:35:53;;;;;;;;;;;4.90;99.90;;;;;;5016170;28;20156;-76
2024/01/06 02:38:39;;;;;;;;;;;4.90;99.90;;;;;;5035850;28;19925;-75
2024/01/06 02:41:25;;;;;;;;;;;4.90;99.90;;;;;;5013343;28;19928;-76
2024/01/06 02:44:11;;;;;;;;;;;4.90;99.90;;;;;;5039587;28;19997;-76
2024/01/06 02:46:57;;;;;;;;;;;4.90;99.90;;;;;;5017967;28;19966;-76
2024/01/06 02:49:43;;;;;;;;;;;5.00;99.90;;;;;;5024346;28;19913;-75
2024/01/06 02:52:29;;;;;;;;;;;4.90;99.90;;;;;;5017534;28;19925;-76
2024/01/06 02:55:15;;;;;;;;;;;4.90;99.90;;;;;;5032565;28;19941;-76
2024/01/06 02:58:01;;;;;;;;;;;4.90;99.90;;;;;;5022404;28;19952;-76
2024/01/06 03:00:46;;;;;;;;;;;4.90;99.90;;;;;;5047209;28;20409;-76
2024/01/06 03:03:32;;;;;;;;;;;4.90;99.90;;;;;;5011194;28;19928;-76
2024/01/06 03:06:18;;;;;;;;;;;4.90;99.90;;;;;;5019278;28;19943;-76
2024/01/06 03:09:04;;;;;;;;;;;4.90;99.90;;;;;;5022345;28;20231;-76
2024/01/06 03:11:50;;;;;;;;;;;4.90;99.90;;;;;;5025016;28;19925;-76
2024/01/06 03:14:36;;;;;;;;;;;4.90;99.90;;;;;;5021413;28;19924;-76
2024/01/06 03:17:22;;;;;;;;;;;4.80;99.90;;;;;;5019726;28;19940;-76
2024/01/06 03:20:08;;;;;;;;;;;4.90;99.90;;;;;;5010159;28;20004;-76
2024/01/06 03:22:54;;;;;;;;;;;4.90;99.90;;;;;;5033638;28;19966;-76
2024/01/06 03:25:40;;;;;;;;;;;4.90;99.90;;;;;;5039573;28;19917;-76
2024/01/06 03:28:26;;;;;;;;;;;4.80;99.90;;;;;;5007164;28;19943;-76
2024/01/06 03:31:12;;;;;;;;;;;4.80;99.90;;;;;;5020010;28;19920;-76
2024/01/06 03:33:58;;;;;;;;;;;4.80;99.90;;;;;;5033279;28;19944;-76
2024/01/06 03:36:44;;;;;;;;;;;4.80;99.90;;;;;;5011677;28;19921;-76
2024/01/06 03:39:30;;;;;;;;;;;4.80;99.90;;;;;;5025414;28;20330;-76
2024/01/06 03:42:15;;;;;;;;;;;4.80;99.90;;;;;;5038466;28;19913;-76
2024/01/06 03:45:01;;;;;;;;;;;4.80;99.90;;;;;;5014750;28;20254;-76
2024/01/06 03:47:47;;;;;;;;;;;4.80;99.90;;;;;;5016983;28;19936;-76
2024/01/06 03:50:33;;;;;;;;;;;4.80;99.90;;;;;;5038114;28;20004;-76
2024/01/06 03:53:19;;;;;;;;;;;4.80;99.90;;;;;;5019926;28;19917;-76
2024/01/06 03:56:05;;;;;;;;;;;4.80;99.90;;;;;;5020181;28;19917;-76
2024/01/06 03:58:51;;;;;;;;;;;4.80;99.90;;;;;;5015775;28;19988;-76
2024/01/06 04:01:37;;;;;;;;;;;4.80;99.90;;;;;;5001190;28;19918;-76
2024/01/06 04:04:22;;;;;;;;;;;4.80;99.90;;;;;;5021915;28;20322;-76
2024/01/06 04:07:08;;;;;;;;;;;4.80;99.90;;;;;;5008683;28;19917;-76
2024/01/06 04:09:54;;;;;;;;;;;4.80;99.90;;;;;;5047628;28;19928;-76
2024/01/06 04:12:41;;;;;;;;;;;4.80;99.90;;;;;;5028164;28;19932;-76
2024/01/06 04:15:26;;;;;;;;;;;4.80;99.90;;;;;;5008294;28;19928;-76
2024/01/06 04:18:12;;;;;;;;;;;4.80;99.90;;;;;;5035637;28;19940;-76
2024/01/06 04:20:58;;;;;;;;;;;4.80;99.90;;;;;;5006618;28;19917;-76
2024/01/06 04:23:44;;;;;;;;;;;4.80;99.90;;;;;;5019105;28;20338;-76
2024/01/06 04:26:30;;;;;;;;;;;4.80;99.90;;;;;;5009461;28;19933;-76
2024/01/06 04:29:16;;;;;;;;;;;4.80;99.90;;;;;;5018324;28;19952;-76
2024/01/06 04:32:02;;;;;;;;;;;4.80;99.90;;;;;;5014327;28;19921;-76
2024/01/06 04:34:48;;;;;;;;;;;4.80;99.90;;;;;;5000416;28;19917;-76
2024/01/06 04:37:34;;;;;;;;;;;4.80;99.90;;;;;;5020070;28;20409;-76
2024/01/06 04:40:19;;;;;;;;;;;4.80;99.90;;;;;;5030106;28;20542;-76
2024/01/06 04:43:05;;;;;;;;;;;4.80;99.90;;;;;;5011640;28;19979;-76
2024/01/06 04:45:51;;;;;;;;;;;4.80;99.90;;;;;;5003153;28;19914;-76
2024/01/06 04:48:38;;;;;;;;;;;4.80;99.90;;;;;;5044663;28;19918;-76
2024/01/06 04:51:24;;;;;;;;;;;4.80;99.90;;;;;;5027521;28;19925;-76
2024/01/06 04:54:09;;;;;;;;;;;4.80;99.90;;;;;;5007035;28;19971;-76
2024/01/06 04:56:56;;;;;;;;;;;4.80;99.90;;;;;;5014817;28;19924;-76
2024/01/06 04:59:41;;;;;;;;;;;4.80;99.90;;;;;;5009153;28;19913;-76
2024/01/06 05:02:27;;;;;;;;;;;4.80;99.90;;;;;;5028404;28;20333;-77
2024/01/06 05:05:13;;;;;;;;;;;4.80;99.90;;;;;;5025099;28;19928;-77
2024/01/06 05:08:00;;;;;;;;;;;4.70;99.90;;;;;;5010834;28;19917;-76
2024/01/06 05:10:47;;;;;;;;;;;4.70;99.90;;;;;;4998495;28;19921;-77
2024/01/06 05:13:33;;;;;;;;;;;4.80;99.90;;;;;;5021209;28;19913;-76
2024/01/06 05:16:18;;;;;;;;;;;4.70;99.90;;;;;;5025234;28;20233;-76
2024/01/06 05:19:04;;;;;;;;;;;4.70;99.90;;;;;;5013843;28;19920;-76
2024/01/06 05:21:50;;;;;;;;;;;4.70;99.90;;;;;;5008851;28;19918;-77
2024/01/06 05:24:36;;;;;;;;;;;4.70;99.90;;;;;;5000478;28;19918;-77
2024/01/06 05:27:22;;;;;;;;;;;4.70;99.90;;;;;;5008233;28;20043;-75
2024/01/06 05:30:08;;;;;;;;;;;4.70;99.90;;;;;;5009239;28;19925;-76
2024/01/06 05:32:54;;;;;;;;;;;4.70;99.90;;;;;;5015202;28;19965;-76
2024/01/06 05:35:40;;;;;;;;;;;4.70;99.90;;;;;;5025251;28;19913;-76
2024/01/06 05:38:26;;;;;;;;;;;4.70;99.90;;;;;;5011918;28;19929;-76
2024/01/06 05:41:13;;;;;;;;;;;4.70;99.90;;;;;;5014792;28;19924;-76
2024/01/06 05:43:59;;;;;;;;;;;4.70;99.90;;;;;;5033240;28;19913;-76
2024/01/06 05:46:44;;;;;;;;;;;4.70;99.90;;;;;;5005581;28;20370;-76
2024/01/06 05:49:30;;;;;;;;;;;4.70;99.90;;;;;;5047438;28;19923;-77
2024/01/06 05:52:16;;;;;;;;;;;4.70;99.90;;;;;;5025601;28;19928;-76
2024/01/06 05:55:02;;;;;;;;;;;4.70;99.90;;;;;;5022912;28;19913;-76
2024/01/06 05:57:48;;;;;;;;;;;4.70;99.90;;;;;;5007825;28;19919;-77
2024/01/06 06:00:34;;;;;;;;;;;4.70;99.90;;;;;;5017947;28;19933;-77
2024/01/06 06:03:20;;;;;;;;;;;4.70;99.90;;;;;;5028048;28;19951;-77
2024/01/06 06:06:06;;;;;;;;;;;4.70;99.90;;;;;;5009153;28;19940;-77
2024/01/06 06:08:51;;;;;;;;;;;4.70;99.90;;;;;;5012161;28;19917;-77
2024/01/06 06:11:37;;;;;;;;;;;4.70;99.90;;;;;;5019655;28;19980;-77
2024/01/06 06:14:23;;;;;;;;;;;4.70;99.90;;;;;;5008648;28;19925;-76
2024/01/06 06:17:09;;;;;;;;;;;4.70;99.90;;;;;;4998219;28;19921;-76
2024/01/06 06:19:56;;;;;;;;;;;4.70;99.90;;;;;;5003715;28;20426;-76
2024/01/06 06:22:42;;;;;;;;;;;4.70;99.90;;;;;;5030572;28;19923;-77
2024/01/06 06:25:28;;;;;;;;;;;4.70;99.90;;;;;;5011164;28;19949;-76
2024/01/06 06:28:14;;;;;;;;;;;4.70;99.90;;;;;;5037138;28;19917;-76
2024/01/06 06:31:01;;;;;;;;;;;4.70;99.90;;;;;;5022273;28;19973;-76
2024/01/06 06:33:47;;;;;;;;;;;4.60;99.90;;;;;;5004085;28;19925;-77
2024/01/06 06:36:33;;;;;;;;;;;4.70;99.90;;;;;;5025802;28;19921;-76
2024/01/06 06:39:19;;;;;;;;;;;4.60;99.90;;;;;;5005651;28;19917;-76
2024/01/06 06:42:05;;;;;;;;;;;4.70;99.90;;;;;;5014572;28;19913;-76
2024/01/06 06:44:51;;;;;;;;;;;4.70;99.90;;;;;;5021729;28;19916;-76
2024/01/06 06:47:37;;;;;;;;;;;4.70;99.90;;;;;;5017212;28;20332;-76
2024/01/06 06:50:22;;;;;;;;;;;4.70;99.90;;;;;;5017993;28;19995;-76
2024/01/06 06:53:08;;;;;;;;;;;4.70;99.90;;;;;;5009359;28;19984;-76
2024/01/06 06:55:54;;;;;;;;;;;4.70;99.90;;;;;;5006721;28;19933;-76
2024/01/06 06:58:40;;;;;;;;;;;4.70;99.90;;;;;;5007298;28;19922;-76
2024/01/06 07:01:26;;;;;;;;;;;4.70;99.90;;;;;;5029200;28;19913;-76
2024/01/06 07:04:12;;;;;;;;;;;4.70;99.90;;;;;;5016702;28;19944;-76
2024/01/06 07:06:57;;;;;;;;;;;4.70;99.90;;;;;;5021954;28;19921;-76
2024/01/06 07:09:43;;;;;;;;;;;4.70;99.90;;;;;;5003705;28;20634;-76
2024/01/06 07:12:29;;;;;;;;;;;4.60;99.90;;;;;;5027093;28;19917;-76
2024/01/06 07:15:15;;;;;;;;;;;4.60;99.90;;;;;;5013248;28;19928;-76
2024/01/06 07:18:01;;;;;;;;;;;4.60;99.90;;;;;;5003601;28;19928;-76
2024/01/06 07:20:47;;;;;;;;;;;4.70;99.90;;;;;;5011818;28;19928;-76
2024/01/06 07:23:33;;;;;;;;;;;4.60;99.90;;;;;;5047730;28;20080;-76
2024/01/06 07:26:19;;;;;;;;;;;4.70;99.90;;;;;;5010763;28;19917;-76
2024/01/06 07:29:05;;;;;;;;;;;4.60;99.90;;;;;;5015261;28;20006;-76
2024/01/06 07:31:51;;;;;;;;;;;4.60;99.90;;;;;;5011404;28;19920;-76
2024/01/06 07:34:36;;;;;;;;;;;4.60;99.90;;;;;;5005868;28;20243;-76
2024/01/06 07:37:22;;;;;;;;;;;4.60;99.90;;;;;;5017973;28;19925;-77
2024/01/06 07:40:09;;;;;;;;;;;4.60;99.90;;;;;;5012348;28;19917;-76
2024/01/06 07:42:54;;;;;;;;;;;4.60;99.90;;;;;;5025877;28;19921;-76
2024/01/06 07:45:41;;;;;;;;;;;4.60;99.90;;;;;;5002801;28;20573;-76
2024/01/06 07:48:27;;;;;;;;;;;4.60;99.90;;;;;;5006617;28;20008;-77
2024/01/06 07:51:13;;;;;;;;;;;4.60;99.90;;;;;;4993118;28;19930;-77
2024/01/06 07:53:59;;;;;;;;;;;4.60;99.90;;;;;;5009338;28;19914;-77
2024/01/06 07:56:45;;;;;;;;;;;4.60;99.90;;;;;;5024586;28;19928;-76
2024/01/06 07:59:31;;;;;;;;;;;4.60;99.90;;;;;;5015353;28;20423;-77
2024/01/06 08:02:17;;;;;;;;;;;4.60;99.90;;;;;;5003321;28;19945;-76
2024/01/06 08:05:03;;;;;;;;;;;4.60;99.90;;;;;;5025283;28;19917;-76
2024/01/06 08:07:49;;;;;;;;;;;4.60;99.90;;;;;;4998077;28;19929;-76
2024/01/06 08:10:35;;;;;;;;;;;4.60;99.90;;;;;;5013969;28;19980;-76
2024/01/06 08:13:23;;;;;;;;;;;4.60;99.90;;;;;;5015771;28;20385;-77
2024/01/06 08:16:09;;;;;;;;;;;4.50;99.90;;;;;;5007438;28;19921;-76
2024/01/06 08:18:55;;;;;;;;;;;4.50;99.90;;;;;;5011045;28;19917;-76
2024/01/06 08:21:41;;;;;;;;;;;4.50;99.90;;;;;;5011240;28;19913;-76
2024/01/06 08:24:27;;;;;;;;;;;4.60;99.90;;;;;;5024360;28;20000;-76
2024/01/06 08:27:12;;;;;;;;;;;4.60;99.90;;;;;;5012068;28;19921;-76
2024/01/06 08:29:58;;;;;;;;;;;4.50;99.90;;;;;;5037704;28;20004;-76
2024/01/06 08:32:44;;;;;;;;;;;4.60;99.90;;;;;;5011138;28;19924;-76
2024/01/06 08:35:31;;;;;;;;;;;4.60;99.90;;;;;;5024541;28;19917;-77
2024/01/06 08:38:18;;;;;;;;;;;4.50;99.90;;;;;;5005615;28;20454;-76
2024/01/06 08:41:04;;;;;;;;;;;4.50;99.90;;;;;;5015253;28;19922;-76
2024/01/06 08:43:50;;;;;;;;;;;4.50;99.90;;;;;;5009742;28;20095;-76
2024/01/06 08:46:36;;;;;;;;;;;4.50;99.90;;;;;;5014922;28;19924;-76
2024/01/06 08:49:21;;;;;;;;;;;4.50;99.90;;;;;;5022545;28;20389;-76
2024/01/06 08:52:07;;;;;;;;;;;4.50;99.90;;;;;;5009347;28;19948;-76
2024/01/06 08:54:53;;;;;;;;;;;4.50;99.90;;;;;;5004019;28;20305;-76
2024/01/06 08:57:39;;;;;;;;;;;4.50;99.90;;;;;;5009768;28;19944;-76
2024/01/06 09:00:25;;;;;;;;;;;4.50;99.90;;;;;;5008813;28;19924;-76
2024/01/06 09:03:12;;;;;;;;;;;4.50;99.90;;;;;;5022287;28;20003;-75
2024/01/06 09:05:58;;;;;;;;;;;4.50;99.90;;;;;;5017162;28;20225;-77
2024/01/06 09:08:44;;;;;;;;;;;4.50;99.90;;;;;;5022065;28;19979;-76
2024/01/06 09:11:29;;;;;;;;;;;4.50;99.90;;;;;;5022086;28;19924;-75
2024/01/06 09:14:18;;;;;;;;;;;4.60;99.90;;;;;;5019663;28;19917;-76
2024/01/06 09:17:04;;;;;;;;;;;4.50;99.90;;;;;;5022131;28;19917;-76
2024/01/06 09:19:51;;;;;;;;;;;4.50;99.90;;;;;;5023873;28;19995;-76
2024/01/06 09:22:37;;;;;;;;;;;4.50;99.90;;;;;;5005297;28;19929;-75
2024/01/06 09:25:24;;;;;;;;;;;4.60;99.90;;;;;;5024787;28;20206;-76
2024/01/06 09:28:10;;;;;;;;;;;4.50;99.90;;;;;;5020578;28;19969;-76
2024/01/06 09:30:56;;;;;;;;;;;4.60;99.90;;;;;;4995372;28;19932;-76
2024/01/06 09:33:42;;;;;;;;;;;4.50;99.90;;;;;;4989470;28;20007;-75
2024/01/06 09:36:29;;;;;;;;;;;4.50;99.90;;;;;;5004608;28;19917;-76
2024/01/06 09:39:15;;;;;;;;;;;4.50;99.90;;;;;;5004964;28;19936;-75
2024/01/06 09:42:01;;;;;;;;;;;4.50;99.90;;;;;;5011197;28;19924;-75
2024/01/06 09:44:47;;;;;;;;;;;4.40;99.90;;;;;;5001587;28;19933;-75
2024/01/06 09:47:34;;;;;;;;;;;4.50;99.90;;;;;;5022392;28;20452;-75
2024/01/06 09:50:20;;;;;;;;;;;4.40;99.90;;;;;;5007412;28;19917;-74
2024/01/06 09:53:06;;;;;;;;;;;4.50;99.90;;;;;;5020370;28;19931;-75
2024/01/06 09:55:52;;;;;;;;;;;4.50;99.90;;;;;;4999933;28;19924;-75
2024/01/06 09:58:38;;;;;;;;;;;4.50;99.90;;;;;;5015508;28;19913;-75
2024/01/06 10:01:24;;;;;;;;;;;4.50;99.90;;;;;;5011734;28;20022;-75
2024/01/06 10:04:10;;;;;;;;;;;4.50;99.90;;;;;;5017655;28;19913;-75
2024/01/06 10:06:56;;;;;;;;;;;4.50;99.90;;;;;;5007061;28;19917;-75
2024/01/06 10:09:42;;;;;;;;;;;4.50;99.90;;;;;;5021834;28;19913;-75
2024/01/06 10:12:28;;;;;;;;;;;4.50;99.90;;;;;;5015721;28;19917;-77
2024/01/06 10:15:14;;;;;;;;;;;4.50;99.90;;;;;;5014709;28;19927;-75
2024/01/06 10:18:00;;;;;;;;;;;4.50;99.90;;;;;;5010990;28;19928;-77
2024/01/06 10:20:46;;;;;;;;;;;4.50;99.90;;;;;;5009767;28;20000;-74
2024/01/06 10:23:32;;;;;;;;;;;4.50;99.90;;;;;;5008187;28;19952;-77
2024/01/06 10:26:18;;;;;;;;;;;4.50;99.90;;;;;;5002589;28;19928;-77
2024/01/06 10:29:07;;;;;;;;;;;4.50;99.90;;;;;;5009058;28;19995;-78
2024/01/06 10:31:53;;;;;;;;;;;4.60;99.90;;;;;;5025541;28;19951;-79
2024/01/06 10:34:39;;;;;;;;;;;4.60;99.90;;;;;;5012305;28;20016;-79
2024/01/06 10:37:25;;;;;;;;;;;4.60;99.90;;;;;;5024155;28;19940;-79
2024/01/06 10:40:11;;;;;;;;;;;4.70;99.90;;;;;;5005426;28;19988;-79
2024/01/06 10:42:57;;;;;;;;;;;4.60;99.90;;;;;;5004165;28;19928;-79
2024/01/06 10:45:43;;;;;;;;;;;4.70;99.90;;;;;;5009269;28;19924;-79
2024/01/06 10:48:30;;;;;;;;;;;4.60;99.90;;;;;;5004180;28;19953;-79
2024/01/06 10:51:16;;;;;;;;;;;4.60;99.90;;;;;;5008090;28;20350;-79
2024/01/06 10:54:02;;;;;;;;;;;4.60;99.90;;;;;;5013859;28;19917;-78
2024/01/06 10:56:48;;;;;;;;;;;4.60;99.90;;;;;;4999210;28;19963;-79
2024/01/06 10:59:34;;;;;;;;;;;4.50;99.90;;;;;;5016947;28;19921;-79
2024/01/06 11:02:20;;;;;;;;;;;4.50;99.90;;;;;;5019086;28;19913;-78
2024/01/06 11:05:10;;;;;;;;;;;4.50;99.90;;;;;;5019936;28;19921;-79
2024/01/06 11:08:00;;;;;;;;;;;4.40;99.90;;;;;;5017779;28;19924;-79
2024/01/06 11:10:46;;;;;;;;;;;4.50;99.90;;;;;;4996039;28;19978;-79
2024/01/06 11:13:32;;;;;;;;;;;4.40;99.90;;;;;;5022506;28;19913;-79
2024/01/06 11:16:34;;;;;;;;;;;4.30;99.90;;;;;;5007972;28;20539;-79
2024/01/06 11:19:35;;;;;;;;;;;4.20;99.90;;;;;;5017934;28;20651;-79
2024/01/06 11:22:28;;;;;;;;;;;4.30;99.90;;;;;;4999243;28;20634;-79
2024/01/06 11:25:15;;;;;;;;;;;4.20;99.90;;;;;;5030675;28;19925;-79
2024/01/06 11:28:01;;;;;;;;;;;4.20;99.90;;;;;;5022577;28;20308;-79
2024/01/06 11:30:50;;;;;;;;;;;4.10;99.90;;;;;;5021258;28;20375;-79
2024/01/06 11:33:42;;;;;;;;;;;4.10;99.90;;;;;;5010685;28;19921;-79
2024/01/06 11:36:28;;;;;;;;;;;4.10;99.90;;;;;;4993935;28;19913;-79
2024/01/06 11:39:33;;;;;;;;;;;4.10;99.90;;;;;;5012412;28;20609;-80
2024/01/06 11:42:19;;;;;;;;;;;4.10;99.90;;;;;;4996872;28;20323;-79
2024/01/06 11:45:06;;;;;;;;;;;4.10;99.90;;;;;;4983374;28;20282;-79
2024/01/06 11:47:54;;;;;;;;;;;4.20;99.90;;;;;;5008520;28;19914;-79
2024/01/06 11:50:40;;;;;;;;;;;4.10;99.90;;;;;;4990460;28;19917;-80
2024/01/06 11:53:26;;;;;;;;;;;4.00;99.90;;;;;;4983388;28;19976;-79
2024/01/06 11:56:12;;;;;;;;;;;4.10;99.90;;;;;;4983611;28;20341;-80
2024/01/06 11:58:58;;;;;;;;;;;4.10;99.90;;;;;;4993400;28;19972;-79
2024/01/06 12:01:44;;;;;;;;;;;4.10;99.90;;;;;;5003214;28;19914;-79
2024/01/06 12:04:30;;;;;;;;;;;4.10;99.90;;;;;;4998538;28;19913;-79
2024/01/06 12:07:15;;;;;;;;;;;4.00;99.90;;;;;;5004617;28;19918;-79
2024/01/06 12:10:02;;;;;;;;;;;4.10;99.90;;;;;;5008594;28;20400;-79
2024/01/06 12:12:54;;;;;;;;;;;4.10;99.90;;;;;;4997439;28;20338;-79
2024/01/06 12:15:40;;;;;;;;;;;4.00;99.90;;;;;;5006985;28;19913;-78
2024/01/06 12:18:26;;;;;;;;;;;4.00;99.90;;;;;;4982115;28;20339;-79
2024/01/06 12:21:12;;;;;;;;;;;4.00;99.90;;;;;;4983561;28;20322;-80
2024/01/06 12:24:20;;;;;;;;;;;4.00;99.90;;;;;;4991739;28;19945;-80
2024/01/06 12:27:06;;;;;;;;;;;4.00;99.90;;;;;;4980915;28;19944;-80
2024/01/06 12:29:52;;;;;;;;;;;4.00;99.90;;;;;;5000295;28;19924;-80
2024/01/06 12:32:38;;;;;;;;;;;4.00;99.90;;;;;;4998576;28;20646;-79
2024/01/06 12:35:24;;;;;;;;;;;4.00;99.90;;;;;;5011219;28;19948;-80
2024/01/06 12:38:10;;;;;;;;;;;4.00;99.90;;;;;;5011499;28;19929;-79
2024/01/06 12:40:56;;;;;;;;;;;4.00;99.90;;;;;;5021943;28;19924;-79
2024/01/06 12:43:42;;;;;;;;;;;4.00;99.90;;;;;;5006046;28;19971;-80
2024/01/06 12:46:27;;;;;;;;;;;3.90;99.90;;;;;;5011652;28;20013;-79
2024/01/06 12:49:13;;;;;;;;;;;3.90;99.90;;;;;;5001478;28;19941;-79
2024/01/06 12:51:59;;;;;;;;;;;3.90;99.90;;;;;;5003075;28;20262;-79
2024/01/06 12:54:45;;;;;;;;;;;4.00;99.90;;;;;;5007415;28;19940;-79
2024/01/06 12:57:31;;;;;;;;;;;3.90;99.90;;;;;;5002321;28;20079;-79
2024/01/06 13:00:20;;;;;;;;;;;3.90;99.90;;;;;;4988180;28;20315;-77
2024/01/06 13:03:06;;;;;;;;;;;3.90;99.90;;;;;;5017784;28;19913;-78
2024/01/06 13:05:52;;;;;;;;;;;3.90;99.90;;;;;;5019467;28;19996;-78
2024/01/06 13:08:38;;;;;;;;;;;4.00;99.90;;;;;;5006811;28;19945;-78
2024/01/06 13:11:24;;;;;;;;;;;4.10;99.90;;;;;;5019764;28;19917;-78
2024/01/06 13:14:10;;;;;;;;;;;4.10;99.90;;;;;;4999350;28;19944;-78
2024/01/06 13:16:56;;;;;;;;;;;4.10;99.90;;;;;;5007010;28;20565;-78
2024/01/06 13:19:41;;;;;;;;;;;4.20;99.90;;;;;;5000977;28;20293;-78
2024/01/06 13:22:28;;;;;;;;;;;4.30;99.90;;;;;;5002923;28;19949;-78
2024/01/06 13:25:14;;;;;;;;;;;4.30;99.90;;;;;;5019353;28;19913;-79
2024/01/06 13:28:00;;;;;;;;;;;4.30;99.90;;;;;;5007123;28;19916;-79
2024/01/06 13:30:46;;;;;;;;;;;4.30;99.90;;;;;;5005512;28;19940;-79
2024/01/06 13:33:32;;;;;;;;;;;4.20;99.90;;;;;;5003513;28;19913;-79
2024/01/06 13:36:20;;;;;;;;;;;4.20;99.90;;;;;;5003943;28;19998;-80
2024/01/06 13:39:06;;;;;;;;;;;4.20;99.90;;;;;;5007235;28;20300;-79
2024/01/06 13:41:52;;;;;;;;;;;4.10;99.90;;;;;;5023937;28;20080;-80
2024/01/06 13:44:38;;;;;;;;;;;4.00;99.90;;;;;;5001827;28;19928;-79
2024/01/06 13:47:24;;;;;;;;;;;3.90;99.90;;;;;;4995239;28;19928;-79
2024/01/06 13:50:15;;;;;;;;;;;3.90;99.90;;;;;;4995147;28;20436;-79
2024/01/06 13:53:02;;;;;;;;;;;3.90;99.90;;;;;;5020652;28;19995;-79
2024/01/06 13:55:48;;;;;;;;;;;3.90;99.90;;;;;;4991190;28;19917;-79
2024/01/06 13:58:35;;;;;;;;;;;3.90;99.90;;;;;;4986722;28;20334;-79
2024/01/06 14:01:23;;;;;;;;;;;3.80;99.90;;;;;;4988607;28;19983;-79
2024/01/06 14:04:09;;;;;;;;;;;3.80;99.90;;;;;;5002362;28;19936;-79
2024/01/06 14:06:57;;;;;;;;;;;3.70;99.90;;;;;;5007574;28;19940;-79
2024/01/06 14:09:43;;;;;;;;;;;3.70;99.90;;;;;;5007773;28;20544;-79
2024/01/06 14:12:30;;;;;;;;;;;3.70;99.90;;;;;;5001585;28;20004;-79
2024/01/06 14:15:16;;;;;;;;;;;3.60;99.90;;;;;;4998136;28;19978;-79
2024/01/06 14:18:03;;;;;;;;;;;3.60;99.90;;;;;;5006761;28;19924;-79
2024/01/06 14:20:51;;;;;;;;;;;3.60;99.90;;;;;;5007117;28;19913;-79
2024/01/06 14:23:37;;;;;;;;;;;3.50;99.90;;;;;;5002626;28;20242;-79
2024/01/06 14:26:23;;;;;;;;;;;3.50;99.90;;;;;;5019480;28;19924;-79
2024/01/06 14:29:09;;;;;;;;;;;3.60;99.90;;;;;;5006265;28;20019;-79
2024/01/06 14:31:55;;;;;;;;;;;3.50;99.90;;;;;;4998348;28;19948;-79
2024/01/06 14:34:41;;;;;;;;;;;3.50;99.90;;;;;;5013050;28;19999;-79
2024/01/06 14:37:27;;;;;;;;;;;3.40;99.90;;;;;;4989211;28;20331;-78
2024/01/06 14:40:13;;;;;;;;;;;3.50;99.90;;;;;;5016640;28;19917;-78
2024/01/06 14:43:02;;;;;;;;;;;3.40;99.90;;;;;;5002059;28;19917;-79
2024/01/06 14:45:48;;;;;;;;;;;3.40;99.90;;;;;;5018040;28;19943;-81
2024/01/06 14:48:34;;;;;;;;;;;3.50;99.90;;;;;;5007593;28;20011;-80
2024/01/06 14:51:22;;;;;;;;;;;3.40;99.90;;;;;;5018375;28;19932;-81
2024/01/06 14:54:08;;;;;;;;;;;3.40;99.90;;;;;;5009233;28;20241;-81
2024/01/06 14:56:54;;;;;;;;;;;3.40;99.90;;;;;;5005221;28;19914;-79
2024/01/06 14:59:40;;;;;;;;;;;3.40;99.90;;;;;;4994687;28;19975;-80
2024/01/06 15:02:26;;;;;;;;;;;3.40;99.90;;;;;;5010568;28;19913;-79
2024/01/06 15:05:11;;;;;;;;;;;3.20;99.90;;;;;;5011487;28;20322;-80
2024/01/06 15:07:57;;;;;;;;;;;3.20;99.90;;;;;;5022812;28;19928;-80
2024/01/06 15:10:43;;;;;;;;;;;3.20;99.90;;;;;;5008904;28;19914;-79
2024/01/06 15:13:30;;;;;;;;;;;3.20;99.90;;;;;;5023103;28;20004;-80
2024/01/06 15:16:16;;;;;;;;;;;3.10;99.90;;;;;;5023691;28;20415;-80
2024/01/06 15:19:02;;;;;;;;;;;3.20;99.90;;;;;;5010352;28;19917;-80
2024/01/06 15:21:49;;;;;;;;;;;3.10;99.90;;;;;;5022261;28;20636;-79
2024/01/06 15:24:35;;;;;;;;;;;3.10;99.90;;;;;;5009308;28;19917;-80
2024/01/06 15:27:21;;;;;;;;;;;3.10;99.90;;;;;;5003627;28;20309;-80
2024/01/06 15:30:08;;;;;;;;;;;3.00;99.90;;;;;;4989511;28;20254;-80
2024/01/06 15:32:53;;;;;;;;;;;2.90;99.90;;;;;;5007222;28;20289;-79
2024/01/06 15:35:39;;;;;;;;;;;2.90;99.90;;;;;;5008267;28;19928;-80
2024/01/06 15:38:27;;;;;;;;;;;2.90;99.90;;;;;;5008523;28;19940;-80
2024/01/06 15:41:13;;;;;;;;;;;2.90;99.90;;;;;;5001074;28;19914;-79
2024/01/06 15:43:58;;;;;;;;;;;2.90;99.90;;;;;;4993924;28;19920;-80
2024/01/06 15:46:49;;;;;;;;;;;2.90;99.90;;;;;;5009682;28;20014;-79
2024/01/06 15:49:35;;;;;;;;;;;2.90;99.90;;;;;;4990412;28;19917;-79
2024/01/06 15:52:21;;;;;;;;;;;2.90;99.90;;;;;;4993511;28;20278;-78
2024/01/06 15:55:07;;;;;;;;;;;2.90;99.90;;;;;;5021818;28;20321;-79
2024/01/06 15:57:53;;;;;;;;;;;3.00;99.90;;;;;;5012411;28;20318;-79
2024/01/06 16:00:42;;;;;;;;;;;3.00;99.90;;;;;;4992478;28;19917;-79
2024/01/06 16:03:28;;;;;;;;;;;3.00;99.90;;;;;;4998977;28;19917;-79
2024/01/06 16:06:14;;;;;;;;;;;3.00;99.90;;;;;;5017478;28;19917;-79
2024/01/06 16:09:00;;;;;;;;;;;3.00;99.90;;;;;;5019951;28;19913;-79
2024/01/06 16:11:50;;;;;;;;;;;2.90;99.90;;;;;;5006410;28;19916;-79
2024/01/06 16:14:37;;;;;;;;;;;2.90;99.90;;;;;;5007103;28;19917;-79
2024/01/06 16:17:22;;;;;;;;;;;2.90;99.90;;;;;;5006693;28;20348;-79
2024/01/06 16:20:08;;;;;;;;;;;2.80;99.90;;;;;;5021334;28;19921;-79
2024/01/06 16:22:56;;;;;;;;;;;2.80;99.90;;;;;;5007688;28;19917;-79